29°C Temp
20°C Dewpoint
% Humidity
Temperature
19 KM/H
12 MPH
10 KTS
60°
East North
East

Wind Speed
Despejado
Pressure 1011.92 (hPa) - 29.88 (in)
Visibility 6.2 (mi) - 10.0 (km)

Current Conditions
LEVC
Location 70(km)
Metar :LEVC 131930Z 06010KT CAVOK 29/20 Q1012 NOSIG
Thu 13th August 21:30 pm

Airport
  Metar Aviation API Data Provided by https://www.checkwx.com/ PHP scripts by weather34.com ©2020